This is the latest recevied weather packets stored in our database for station/object 9M2IBR-1. If no packets are shown the sender has not sent any weather packets the latest 10 day(s).
| Time | Temp. | Humidity | Pressure | Rain* | Wind** | Luminosity | Snow |
|---|---|---|---|---|---|---|---|
| 1777279522 | 33.89° C | 71% | 1005.1 hPa | 0 mm | - | 424 W/m² | - |
| 1777277422 | 34.44° C | 68% | 1004.9 hPa | 0 mm | - | 537 W/m² | - |
| 1777277125 | 34.44° C | 68% | 1004.9 hPa | 0 mm | - | 566 W/m² | - |
| 1777276516 | 35° C | 67% | 1005 hPa | 0 mm | - | 567 W/m² | - |
| 1777276229 | 34.44° C | 68% | 1005 hPa | 0 mm | - | 581 W/m² | - |
| 1777275021 | 35° C | 68% | 1005.2 hPa | 0 mm | - | 639 W/m² | - |
| 1777274719 | 35.56° C | 67% | 1005.3 hPa | 0 mm | - | 653 W/m² | - |
| 1777273828 | 35.56° C | 67% | 1005.6 hPa | 0 mm | - | 641 W/m² | - |
| 1777272620 | 36.11° C | 65% | 1005.6 hPa | 0 mm | - | 654 W/m² | - |
| 1777268724 | 35.56° C | 66% | 1007.4 hPa | 0 mm | - | 283 W/m² | - |
| 1777267229 | 36.11° C | 61% | 1007.8 hPa | 0 mm | - | 669 W/m² | - |
| 1777266344 | 35° C | 67% | 1007.9 hPa | 0 mm | - | 654 W/m² | - |
| 1777264526 | 36.11° C | 64% | 1008.4 hPa | 0 mm | - | 828 W/m² | - |
| 1777264224 | 35.56° C | 63% | 1008.4 hPa | 0 mm | - | 824 W/m² | - |
| 1777259725 | 33.89° C | 71% | 1008.9 hPa | 0 mm | - | 764 W/m² | - |
| 1777259423 | 33.89° C | 71% | 1008.9 hPa | 0 mm | - | 799 W/m² | - |
| 1777259120 | 33.89° C | 71% | 1008.9 hPa | 0 mm | - | 787 W/m² | - |
| 1777258516 | 32.78° C | 72% | 1009.1 hPa | 0 mm | - | 817 W/m² | - |
| 1777258229 | 33.33° C | 73% | 1009.1 hPa | 0 mm | - | 840 W/m² | - |
| 1777257021 | 32.78° C | 75% | 1009.3 hPa | 0 mm | - | 704 W/m² | - |
| 1777256135 | 31.67° C | 78% | 1009.2 hPa | 0 mm | - | 611 W/m² | - |
| 1777255828 | 31.11° C | 79% | 1009.2 hPa | 0 mm | - | 575 W/m² | - |
| 1777252521 | 29.44° C | 83% | 1008.4 hPa | 0 mm | - | 312 W/m² | - |
| 1777250422 | 28.33° C | 87% | 1008 hPa | 0 mm | - | 177 W/m² | - |
| 1777249516 | 27.22° C | 91% | 1008 hPa | 0 mm | - | 125 W/m² | - |
* Rain latest hour (hover to see other rain measurements)
** Current wind speed in m/s (hover to see current wind gust speed)